Time;durP1;ratioP1;P1;durP2;ratioP2;P2;SDS_P1;SDS_P2;PMS_P1;PMS_P2;Temp;Humidity;BMP_temperature;BMP_pressure;BME280_temperature;BME280_humidity;BME280_pressure;Samples;Min_cycle;Max_cycle;Signal;HPM_P1;HPM_P2
2021/01/21 00:01:08;;;;;;;4.57;2.35;;;0.90;99.90;;;;;;5057096;28;20208;-77
2021/01/21 00:03:34;;;;;;;3.38;2.03;;;0.90;99.90;;;;;;5061712;28;20771;-77
2021/01/21 00:06:00;;;;;;;2.92;2.05;;;0.80;99.90;;;;;;5057825;28;20189;-77
2021/01/21 00:08:27;;;;;;;2.17;1.70;;;0.80;99.90;;;;;;5062094;28;20701;-78
2021/01/21 00:10:53;;;;;;;4.03;2.42;;;0.90;99.90;;;;;;5063166;28;20678;-77
2021/01/21 00:13:18;;;;;;;3.20;2.15;;;0.90;99.90;;;;;;5059589;28;20212;-77
2021/01/21 00:15:44;;;;;;;2.53;1.80;;;0.90;99.90;;;;;;5058573;28;20603;-77
2021/01/21 00:18:10;;;;;;;4.03;2.28;;;0.90;99.90;;;;;;5064045;28;20196;-77
2021/01/21 00:20:35;;;;;;;2.67;1.90;;;0.90;99.90;;;;;;5059476;28;20220;-77
2021/01/21 00:23:01;;;;;;;3.35;2.00;;;0.90;99.90;;;;;;5060950;28;20197;-78
2021/01/21 00:25:27;;;;;;;2.72;1.77;;;0.90;99.90;;;;;;5061091;28;20224;-78
2021/01/21 00:27:52;;;;;;;2.80;1.92;;;0.90;99.90;;;;;;5062498;28;20243;-78
2021/01/21 00:30:19;;;;;;;4.05;1.90;;;0.90;99.90;;;;;;5059919;28;20208;-78
2021/01/21 00:32:45;;;;;;;3.03;1.90;;;0.90;99.90;;;;;;5059854;28;20189;-77
2021/01/21 00:35:12;;;;;;;2.17;1.70;;;1.00;99.90;;;;;;5058471;28;20216;-78
2021/01/21 00:37:38;;;;;;;3.63;2.00;;;1.00;99.90;;;;;;5060650;28;20204;-78
2021/01/21 00:40:05;;;;;;;2.13;1.90;;;0.90;99.90;;;;;;5059804;28;20196;-78
2021/01/21 00:42:32;;;;;;;2.33;1.70;;;0.90;99.90;;;;;;5059370;28;20223;-78
2021/01/21 00:44:58;;;;;;;2.85;1.83;;;0.90;99.90;;;;;;5057082;28;20201;-78
2021/01/21 00:47:24;;;;;;;2.58;1.90;;;1.00;99.90;;;;;;5052393;28;20706;-77
2021/01/21 00:49:49;;;;;;;2.85;1.98;;;1.00;99.90;;;;;;5060751;28;20242;-78
2021/01/21 00:52:15;;;;;;;2.80;2.00;;;1.00;99.90;;;;;;5060762;28;20894;-78
2021/01/21 00:54:41;;;;;;;2.80;1.60;;;1.00;99.90;;;;;;5058060;28;20196;-77
2021/01/21 00:57:07;;;;;;;2.38;1.88;;;1.10;99.90;;;;;;5060447;28;20192;-79
2021/01/21 00:59:32;;;;;;;3.15;1.73;;;1.10;99.90;;;;;;5056604;28;20545;-78
2021/01/21 01:01:58;;;;;;;3.35;1.77;;;1.00;99.90;;;;;;5061669;28;20652;-79
2021/01/21 01:04:24;;;;;;;3.95;1.88;;;1.10;99.90;;;;;;5060633;28;20954;-77
2021/01/21 01:06:49;;;;;;;2.97;1.73;;;1.10;99.90;;;;;;5058712;28;20757;-77
2021/01/21 01:09:15;;;;;;;3.78;1.90;;;1.10;99.90;;;;;;5058855;28;20216;-78
2021/01/21 01:11:40;;;;;;;2.45;1.95;;;1.10;99.90;;;;;;5058995;28;20250;-79
2021/01/21 01:14:06;;;;;;;3.47;2.30;;;1.10;99.90;;;;;;5060495;28;20999;-78
2021/01/21 01:16:32;;;;;;;2.55;1.63;;;1.10;99.90;;;;;;5059624;28;20193;-79
2021/01/21 01:18:58;;;;;;;4.85;2.38;;;1.10;99.90;;;;;;5059404;28;20196;-79
2021/01/21 01:21:24;;;;;;;2.97;2.05;;;1.10;99.90;;;;;;5058509;28;20188;-79
2021/01/21 01:23:49;;;;;;;4.75;2.17;;;1.10;99.90;;;;;;5060668;28;20224;-77
2021/01/21 01:26:15;;;;;;;4.88;2.10;;;1.20;99.90;;;;;;5059834;28;20204;-79
2021/01/21 01:28:43;;;;;;;6.15;2.20;;;1.20;99.90;;;;;;5052944;28;20200;-79
2021/01/21 01:31:08;;;;;;;4.22;2.28;;;1.20;99.90;;;;;;5057394;28;20257;-79
2021/01/21 01:33:34;;;;;;;3.67;1.92;;;1.20;99.90;;;;;;5051855;28;20201;-79
2021/01/21 01:36:00;;;;;;;2.65;1.60;;;1.30;99.90;;;;;;5059637;28;20686;-79
2021/01/21 01:38:25;;;;;;;3.17;2.00;;;1.30;99.90;;;;;;5061475;28;20234;-78
2021/01/21 01:40:52;;;;;;;13.95;2.25;;;1.30;99.90;;;;;;5060379;28;20198;-77
2021/01/21 01:43:18;;;;;;;2.75;1.90;;;1.30;99.90;;;;;;5058672;28;20188;-79
2021/01/21 01:45:43;;;;;;;2.55;1.65;;;1.30;99.90;;;;;;5060594;28;20239;-78
2021/01/21 01:48:09;;;;;;;3.30;1.70;;;1.40;99.90;;;;;;5060829;28;20221;-78
2021/01/21 01:50:35;;;;;;;2.65;1.70;;;1.30;99.90;;;;;;5059419;28;20212;-79
2021/01/21 01:53:01;;;;;;;2.13;1.83;;;1.40;99.90;;;;;;5058058;28;20236;-78
2021/01/21 01:55:27;;;;;;;3.92;2.17;;;1.40;99.90;;;;;;5060407;28;20189;-78
2021/01/21 01:57:54;;;;;;;4.35;1.92;;;1.40;99.90;;;;;;5055789;28;20224;-79
2021/01/21 02:00:21;;;;;;;4.75;1.88;;;1.50;99.90;;;;;;5074800;28;20205;-78
2021/01/21 02:02:51;;;;;;;2.05;1.50;;;1.50;99.90;;;;;;5064774;22;20247;-70
2021/01/21 02:05:18;;;;;;;1.92;1.30;;;1.50;99.90;;;;;;5058362;28;20196;-70
2021/01/21 02:07:45;;;;;;;2.40;1.30;;;1.50;99.90;;;;;;5061475;28;20712;-70
2021/01/21 02:10:12;;;;;;;2.08;1.30;;;1.60;99.90;;;;;;5061453;28;20200;-68
2021/01/21 02:13:02;;;;;;;1.42;1.30;;;1.60;99.90;;;;;;5061615;28;20630;-70
2021/01/21 02:16:05;;;;;;;1.80;1.20;;;1.60;99.90;;;;;;5061200;28;20655;-69
2021/01/21 02:18:40;;;;;;;1.67;1.27;;;1.60;99.90;;;;;;5060992;28;20542;-69
2021/01/21 02:21:27;;;;;;;3.92;1.13;;;1.70;99.90;;;;;;5061777;28;20195;-69
2021/01/21 02:24:35;;;;;;;4.80;1.27;;;1.70;99.90;;;;;;5062106;28;20236;-69
2021/01/21 02:27:04;;;;;;;1.73;1.20;;;1.70;99.90;;;;;;5063468;28;20253;-69
2021/01/21 02:29:36;;;;;;;1.60;1.20;;;1.80;99.90;;;;;;5064110;28;20204;-68
2021/01/21 02:32:10;;;;;;;1.83;1.33;;;1.70;99.90;;;;;;5078434;28;20331;-70
2021/01/21 02:34:52;;;;;;;17.35;1.60;;;1.70;99.90;;;;;;5063630;28;20879;-69
2021/01/21 02:37:29;;;;;;;3.35;1.38;;;1.70;99.90;;;;;;5079398;28;20197;-70
2021/01/21 02:39:57;;;;;;;25.13;2.47;;;1.80;99.90;;;;;;5062579;28;20582;-70
2021/01/21 02:42:23;;;;;;;33.88;2.65;;;1.70;99.90;;;;;;5059223;28;20258;-68
2021/01/21 02:44:49;;;;;;;33.45;2.25;;;1.70;99.90;;;;;;5061185;28;20462;-69
2021/01/21 02:47:17;;;;;;;32.97;2.53;;;1.70;99.90;;;;;;5078626;28;20702;-69
2021/01/21 02:49:43;;;;;;;38.92;3.03;;;1.70;99.90;;;;;;5061408;28;20618;-69
2021/01/21 02:52:21;;;;;;;35.88;2.30;;;1.70;99.90;;;;;;5060367;28;20197;-70
2021/01/21 02:55:02;;;;;;;80.82;3.10;;;1.70;99.90;;;;;;5062677;28;20197;-68
2021/01/21 02:57:37;;;;;;;57.88;4.90;;;1.70;99.90;;;;;;5062191;28;20866;-69
2021/01/21 03:00:09;;;;;;;112.15;4.53;;;1.80;99.90;;;;;;5074560;28;20674;-69
2021/01/21 03:02:44;;;;;;;18.70;2.38;;;1.70;99.90;;;;;;5058349;28;20221;-69
2021/01/21 03:05:13;;;;;;;65.25;3.95;;;1.70;99.90;;;;;;5059547;28;20254;-70
2021/01/21 03:07:39;;;;;;;26.65;2.30;;;1.70;99.90;;;;;;5063143;28;20210;-70
2021/01/21 03:10:07;;;;;;;34.85;3.08;;;1.60;99.90;;;;;;5065019;28;20201;-71
2021/01/21 03:12:33;;;;;;;11.90;2.97;;;1.70;99.90;;;;;;5064559;28;20197;-69
2021/01/21 03:14:59;;;;;;;10.75;3.45;;;1.80;99.90;;;;;;5064152;28;20193;-69
2021/01/21 03:17:26;;;;;;;9.55;3.85;;;2.00;99.90;;;;;;5062482;28;20205;-69
2021/01/21 03:19:53;;;;;;;7.97;4.38;;;2.10;99.90;;;;;;5064908;28;20201;-69
2021/01/21 03:22:19;;;;;;;17.13;4.80;;;2.40;99.90;;;;;;5062822;28;20189;-69
2021/01/21 03:24:45;;;;;;;15.27;4.93;;;2.50;99.90;;;;;;5065654;28;20204;-69
2021/01/21 03:27:11;;;;;;;27.92;4.93;;;2.60;99.90;;;;;;5062708;28;20193;-70
2021/01/21 03:29:37;;;;;;;10.93;5.10;;;2.70;99.90;;;;;;5063492;28;20197;-69
2021/01/21 03:32:04;;;;;;;15.40;5.43;;;2.90;99.90;;;;;;5064369;28;20188;-69
2021/01/21 03:34:30;;;;;;;12.95;5.13;;;2.90;99.90;;;;;;5059880;28;20203;-69
2021/01/21 03:36:56;;;;;;;12.63;5.88;;;3.00;99.90;;;;;;5081902;28;20284;-70
2021/01/21 03:39:22;;;;;;;11.43;5.22;;;3.00;99.90;;;;;;5063799;28;20208;-68
2021/01/21 03:41:51;;;;;;;13.98;5.18;;;3.00;99.90;;;;;;5063912;28;20204;-69
2021/01/21 03:44:17;;;;;;;13.80;5.50;;;2.90;99.90;;;;;;5062864;28;20665;-69
2021/01/21 03:46:43;;;;;;;16.45;6.20;;;3.00;99.90;;;;;;5062666;28;20553;-68
2021/01/21 03:49:09;;;;;;;14.85;6.10;;;3.10;99.90;;;;;;5062576;28;20196;-70
2021/01/21 03:51:35;;;;;;;13.15;6.07;;;3.20;99.90;;;;;;5063778;28;20577;-68
2021/01/21 03:54:00;;;;;;;14.10;6.55;;;3.30;99.90;;;;;;5060198;28;20205;-69
2021/01/21 03:56:26;;;;;;;13.65;6.30;;;3.30;99.90;;;;;;5062291;28;20279;-69
2021/01/21 03:58:51;;;;;;;16.00;6.78;;;3.30;99.90;;;;;;5064418;28;20228;-69
2021/01/21 04:01:17;;;;;;;15.32;6.55;;;3.30;99.90;;;;;;5063316;28;20207;-68
2021/01/21 04:03:43;;;;;;;16.45;7.10;;;3.30;99.90;;;;;;5062234;28;20233;-69
2021/01/21 04:06:10;;;;;;;16.70;7.13;;;3.30;99.90;;;;;;5063390;28;20508;-67
2021/01/21 04:08:36;;;;;;;16.25;7.25;;;3.20;99.90;;;;;;5064667;28;20184;-68
2021/01/21 04:11:02;;;;;;;17.60;7.45;;;3.20;99.90;;;;;;5063199;28;20282;-69
2021/01/21 04:13:28;;;;;;;20.45;8.02;;;3.20;99.90;;;;;;5062040;28;20229;-69
2021/01/21 04:15:53;;;;;;;23.98;9.27;;;3.20;99.90;;;;;;5062778;28;20229;-69
2021/01/21 04:18:19;;;;;;;34.28;10.70;;;3.10;99.90;;;;;;5064730;28;20204;-70
2021/01/21 04:20:45;;;;;;;22.60;9.80;;;3.20;99.90;;;;;;5063087;28;20245;-68
2021/01/21 04:23:11;;;;;;;27.45;10.75;;;3.20;99.90;;;;;;5062582;28;20193;-68
2021/01/21 04:25:36;;;;;;;31.80;10.90;;;3.20;99.90;;;;;;5063823;28;20201;-68
2021/01/21 04:28:03;;;;;;;28.75;11.02;;;3.20;99.90;;;;;;5064295;28;20192;-68
2021/01/21 04:30:29;;;;;;;29.75;11.13;;;3.30;99.90;;;;;;5079296;28;20209;-68
2021/01/21 04:32:55;;;;;;;26.52;10.15;;;3.20;99.90;;;;;;5063327;28;20196;-69
2021/01/21 04:35:20;;;;;;;29.95;11.23;;;3.20;99.90;;;;;;5062396;28;20671;-69
2021/01/21 04:37:46;;;;;;;32.95;11.13;;;3.20;99.90;;;;;;5063817;28;20215;-69
2021/01/21 04:40:12;;;;;;;35.75;11.35;;;3.30;99.90;;;;;;5065179;28;20204;-68
2021/01/21 04:42:38;;;;;;;32.47;10.93;;;3.20;99.90;;;;;;5063156;28;20188;-69
2021/01/21 04:45:06;;;;;;;29.15;10.98;;;3.30;99.90;;;;;;5061485;28;20204;-70
2021/01/21 04:47:32;;;;;;;29.85;11.68;;;3.30;99.90;;;;;;5061864;28;20275;-68
2021/01/21 04:50:00;;;;;;;29.85;10.60;;;3.20;99.90;;;;;;5064175;28;20598;-69
2021/01/21 04:52:26;;;;;;;27.63;11.48;;;3.30;99.90;;;;;;5061657;28;20346;-69
2021/01/21 04:54:58;;;;;;;34.85;11.13;;;3.30;99.90;;;;;;5061525;28;20261;-69
2021/01/21 04:57:45;;;;;;;28.15;11.60;;;3.30;99.90;;;;;;5064202;28;20238;-69
2021/01/21 05:00:12;;;;;;;29.92;12.07;;;3.30;99.90;;;;;;5063773;28;20189;-69
2021/01/21 05:02:40;;;;;;;33.58;13.48;;;3.40;99.90;;;;;;5058539;28;20244;-68
2021/01/21 05:05:10;;;;;;;37.03;12.93;;;3.40;99.90;;;;;;5063551;28;20604;-70
2021/01/21 05:07:38;;;;;;;35.03;12.43;;;3.30;99.90;;;;;;5078301;28;20231;-69
2021/01/21 05:10:06;;;;;;;37.65;13.32;;;3.20;99.90;;;;;;5061288;28;20205;-71
2021/01/21 05:12:32;;;;;;;35.20;13.50;;;3.20;99.90;;;;;;5062156;28;20201;-67
2021/01/21 05:14:57;;;;;;;32.90;12.98;;;3.30;99.90;;;;;;5060678;28;20189;-68
2021/01/21 05:17:23;;;;;;;30.55;12.68;;;3.30;99.90;;;;;;5064550;28;20201;-68
2021/01/21 05:19:52;;;;;;;41.28;14.70;;;3.30;99.90;;;;;;5067912;28;20203;-67
2021/01/21 05:22:18;;;;;;;40.30;14.27;;;3.40;99.90;;;;;;5065031;28;20196;-69
2021/01/21 05:24:45;;;;;;;37.58;13.60;;;3.40;99.90;;;;;;5062186;28;20207;-69
2021/01/21 05:27:11;;;;;;;37.97;15.20;;;3.40;99.90;;;;;;5063205;28;20200;-69
2021/01/21 05:29:36;;;;;;;40.08;15.75;;;3.50;99.90;;;;;;5061156;28;20567;-69
2021/01/21 05:32:05;;;;;;;40.33;15.98;;;3.50;99.90;;;;;;5060978;28;20203;-68
2021/01/21 05:34:35;;;;;;;38.13;15.10;;;3.50;99.90;;;;;;5061656;28;20255;-68
2021/01/21 05:37:01;;;;;;;39.60;14.88;;;3.50;99.90;;;;;;5062988;28;20327;-69
2021/01/21 05:39:36;;;;;;;40.78;15.07;;;3.40;99.90;;;;;;5060323;28;20205;-68
2021/01/21 05:42:03;;;;;;;32.72;13.52;;;3.40;99.90;;;;;;5063227;28;20199;-69
2021/01/21 05:44:29;;;;;;;34.63;13.93;;;3.40;99.90;;;;;;5061732;28;20227;-68
2021/01/21 05:46:55;;;;;;;32.28;14.25;;;3.40;99.90;;;;;;5062179;28;20726;-68
2021/01/21 05:49:20;;;;;;;36.28;14.82;;;3.40;99.90;;;;;;5061481;28;20307;-68
2021/01/21 05:51:46;;;;;;;39.20;15.00;;;3.40;99.90;;;;;;5061471;28;20275;-68
2021/01/21 05:54:13;;;;;;;41.67;15.20;;;3.40;99.90;;;;;;5045663;28;20266;-68
2021/01/21 05:56:38;;;;;;;38.05;14.52;;;3.30;99.90;;;;;;5070077;28;20338;-69
2021/01/21 05:59:04;;;;;;;38.80;14.43;;;3.30;99.90;;;;;;5060614;28;20184;-69
2021/01/21 06:01:32;;;;;;;37.15;15.48;;;3.30;99.90;;;;;;5058072;28;20307;-69
2021/01/21 06:03:58;;;;;;;36.17;13.60;;;3.20;99.90;;;;;;5070795;28;20315;-68
2021/01/21 06:06:27;;;;;;;34.08;14.02;;;3.20;99.90;;;;;;5053959;28;21147;-68
2021/01/21 06:08:53;;;;;;;38.22;14.95;;;3.30;99.90;;;;;;5073069;28;20200;-69
2021/01/21 06:11:20;;;;;;;41.50;13.85;;;3.30;99.90;;;;;;5059012;28;20675;-68
2021/01/21 06:13:47;;;;;;;37.50;15.48;;;3.30;99.90;;;;;;5062717;28;20197;-68
2021/01/21 06:16:15;;;;;;;39.95;14.25;;;3.30;99.90;;;;;;5062813;28;20220;-69
2021/01/21 06:18:40;;;;;;;32.63;13.02;;;3.20;99.90;;;;;;5063532;28;20215;-67
2021/01/21 06:21:09;;;;;;;39.03;13.52;;;3.20;99.90;;;;;;5076200;28;20201;-68
2021/01/21 06:23:37;;;;;;;35.30;13.77;;;3.10;99.90;;;;;;5060117;28;20211;-68
2021/01/21 06:26:04;;;;;;;37.65;14.48;;;3.10;99.90;;;;;;5062863;28;20197;-69
2021/01/21 06:28:31;;;;;;;30.80;13.75;;;3.10;99.90;;;;;;5057513;28;20243;-68
2021/01/21 06:30:59;;;;;;;36.78;13.45;;;3.20;99.90;;;;;;5057406;28;20197;-68
2021/01/21 06:33:39;;;;;;;36.88;13.80;;;3.20;99.90;;;;;;5061545;28;20286;-68
2021/01/21 06:36:08;;;;;;;30.83;13.88;;;3.30;99.90;;;;;;5059948;28;20210;-67
2021/01/21 06:38:44;;;;;;;34.67;12.90;;;3.20;99.90;;;;;;5062408;28;20205;-68
2021/01/21 06:41:15;;;;;;;32.17;13.50;;;3.20;99.90;;;;;;5064792;28;20196;-68
2021/01/21 06:43:41;;;;;;;32.78;13.40;;;3.10;99.90;;;;;;5065137;28;20232;-69
2021/01/21 06:46:08;;;;;;;32.60;13.50;;;3.20;99.90;;;;;;5055813;28;20207;-70
2021/01/21 06:48:34;;;;;;;38.15;13.93;;;3.10;99.90;;;;;;5059824;28;20261;-69
2021/01/21 06:51:12;;;;;;;37.03;12.93;;;3.10;99.90;;;;;;5066708;28;20686;-70
2021/01/21 06:53:43;;;;;;;33.60;13.70;;;3.00;99.90;;;;;;5061033;28;20203;-67
2021/01/21 06:56:09;;;;;;;39.85;13.18;;;3.00;99.90;;;;;;5065454;28;20188;-69
2021/01/21 06:58:53;;;;;;;30.35;12.63;;;3.00;99.90;;;;;;5060950;28;20208;-68
2021/01/21 07:01:31;;;;;;;35.35;13.13;;;3.00;99.90;;;;;;5062721;28;20845;-71
2021/01/21 07:04:18;;;;;;;37.05;14.27;;;2.90;99.90;;;;;;5059290;28;20228;-69
2021/01/21 07:06:50;;;;;;;36.67;13.98;;;3.00;99.90;;;;;;5067683;28;20200;-69
2021/01/21 07:09:18;;;;;;;37.80;14.77;;;3.00;99.90;;;;;;5061945;28;20663;-69
2021/01/21 07:11:45;;;;;;;36.20;13.70;;;3.00;99.90;;;;;;5054134;28;20205;-68
2021/01/21 07:14:11;;;;;;;34.72;13.48;;;3.00;99.90;;;;;;5065157;28;20197;-69
2021/01/21 07:16:37;;;;;;;36.88;14.30;;;3.00;99.90;;;;;;5066815;28;20229;-67
2021/01/21 07:19:03;;;;;;;37.42;13.98;;;2.90;99.90;;;;;;5057235;28;20197;-68
2021/01/21 07:21:32;;;;;;;36.90;15.30;;;2.90;99.90;;;;;;5059991;28;20197;-69
2021/01/21 07:24:00;;;;;;;31.92;14.10;;;3.00;99.90;;;;;;5060297;28;20184;-69
2021/01/21 07:26:36;;;;;;;33.85;13.93;;;2.90;99.90;;;;;;5063773;28;20193;-68
2021/01/21 07:29:21;;;;;;;38.35;15.20;;;2.80;99.90;;;;;;5061432;28;20276;-68
2021/01/21 07:31:53;;;;;;;36.78;13.35;;;2.80;99.90;;;;;;5064517;28;20208;-68
2021/01/21 07:34:39;;;;;;;31.58;13.25;;;2.80;99.90;;;;;;5064850;28;20208;-67
2021/01/21 07:37:17;;;;;;;35.03;14.07;;;2.70;99.90;;;;;;5063479;28;20273;-69
2021/01/21 07:40:04;;;;;;;29.13;12.60;;;2.90;99.90;;;;;;5058822;28;20873;-70
2021/01/21 07:42:38;;;;;;;37.47;13.85;;;2.80;99.90;;;;;;5062563;28;20228;-70
2021/01/21 07:45:14;;;;;;;37.15;14.50;;;2.80;99.90;;;;;;5055760;28;20206;-68
2021/01/21 07:47:47;;;;;;;35.83;13.90;;;2.90;99.90;;;;;;5062112;28;20675;-68
2021/01/21 07:50:22;;;;;;;39.22;14.65;;;2.80;99.90;;;;;;5062163;28;20316;-67
2021/01/21 07:52:50;;;;;;;39.45;13.25;;;2.80;99.90;;;;;;5063382;28;20534;-68
2021/01/21 07:55:27;;;;;;;44.25;14.05;;;2.80;99.90;;;;;;5064229;28;20200;-68
2021/01/21 07:57:53;;;;;;;33.70;13.77;;;2.80;99.90;;;;;;5060033;28;20246;-69
2021/01/21 08:00:19;;;;;;;41.08;14.38;;;2.70;99.90;;;;;;5060658;28;20197;-68
2021/01/21 08:02:49;;;;;;;34.42;12.93;;;2.70;99.90;;;;;;5063210;28;20618;-67
2021/01/21 08:05:20;;;;;;;34.53;14.57;;;2.70;99.90;;;;;;5062530;28;20193;-68
2021/01/21 08:07:51;;;;;;;36.13;13.85;;;2.70;99.90;;;;;;5064151;28;20242;-67
2021/01/21 08:10:26;;;;;;;32.30;14.10;;;2.70;99.90;;;;;;5063142;28;20228;-67
2021/01/21 08:12:53;;;;;;;34.15;14.15;;;2.70;99.90;;;;;;5059711;28;20223;-67
2021/01/21 08:15:20;;;;;;;34.08;13.60;;;2.80;99.90;;;;;;5064009;28;20196;-67
2021/01/21 08:17:48;;;;;;;38.38;13.85;;;2.80;99.90;;;;;;5062331;28;20651;-69
2021/01/21 08:20:14;;;;;;;39.53;14.82;;;2.80;99.90;;;;;;5060453;28;20197;-68
2021/01/21 08:22:56;;;;;;;38.35;13.77;;;2.80;99.90;;;;;;5064514;28;20201;-68
2021/01/21 08:25:23;;;;;;;37.88;13.77;;;2.80;99.90;;;;;;5064512;28;20227;-68
2021/01/21 08:27:50;;;;;;;31.70;13.90;;;2.80;99.90;;;;;;5065342;28;20674;-68
2021/01/21 08:30:21;;;;;;;35.22;13.48;;;2.80;99.90;;;;;;5063690;28;20205;-68
2021/01/21 08:33:02;;;;;;;34.97;13.90;;;2.80;99.90;;;;;;5079877;28;20208;-68
2021/01/21 08:35:35;;;;;;;37.97;13.02;;;2.80;99.90;;;;;;5061915;28;20250;-69
2021/01/21 08:38:03;;;;;;;27.85;12.13;;;2.80;99.90;;;;;;5062361;28;20341;-68
2021/01/21 08:40:29;;;;;;;31.38;13.60;;;2.80;99.90;;;;;;5062454;28;20228;-69
2021/01/21 08:42:56;;;;;;;30.42;12.98;;;2.80;99.90;;;;;;5074400;28;20304;-67
2021/01/21 08:45:27;;;;;;;33.05;12.30;;;2.80;99.90;;;;;;5072872;28;20209;-67
2021/01/21 08:47:53;;;;;;;35.75;13.57;;;2.70;99.90;;;;;;5077529;28;20292;-69
2021/01/21 08:50:20;;;;;;;33.60;14.15;;;2.70;99.90;;;;;;5080825;28;20204;-69
2021/01/21 08:53:04;;;;;;;33.45;11.98;;;2.70;99.90;;;;;;5060108;28;20208;-69
2021/01/21 08:55:38;;;;;;;28.85;12.32;;;2.60;99.90;;;;;;5056944;28;20312;-69
2021/01/21 08:58:04;;;;;;;34.20;12.70;;;2.60;99.90;;;;;;5065256;28;20200;-69
2021/01/21 09:00:31;;;;;;;36.08;13.07;;;2.70;99.90;;;;;;5062399;28;20938;-68
2021/01/21 09:03:00;;;;;;;38.30;13.10;;;2.70;99.90;;;;;;5062552;28;20258;-67
2021/01/21 09:05:26;;;;;;;33.22;12.60;;;2.80;99.90;;;;;;5059130;28;20752;-68
2021/01/21 09:08:05;;;;;;;37.58;13.55;;;2.80;99.90;;;;;;5063362;28;20203;-67
2021/01/21 09:10:39;;;;;;;32.50;12.80;;;2.80;99.90;;;;;;5061756;28;20208;-68
2021/01/21 09:13:06;;;;;;;34.83;12.77;;;2.80;99.90;;;;;;5044977;28;20259;-67
2021/01/21 09:15:52;;;;;;;32.33;11.82;;;2.70;99.90;;;;;;5060337;28;20280;-67
2021/01/21 09:18:18;;;;;;;30.92;12.60;;;2.70;99.90;;;;;;5065979;28;20202;-67
2021/01/21 09:20:44;;;;;;;32.90;11.70;;;2.70;99.90;;;;;;5062261;28;20654;-67
2021/01/21 09:23:20;;;;;;;36.47;12.23;;;2.70;99.90;;;;;;5062253;28;20197;-68
2021/01/21 09:25:47;;;;;;;34.80;11.45;;;2.70;99.90;;;;;;5062071;28;20207;-68
2021/01/21 09:28:14;;;;;;;31.20;12.07;;;2.70;99.90;;;;;;5059556;28;20197;-67
2021/01/21 09:30:40;;;;;;;23.65;10.40;;;2.70;99.90;;;;;;5062617;28;20236;-69
2021/01/21 09:33:07;;;;;;;34.85;12.02;;;2.70;99.90;;;;;;5058599;28;20200;-67
2021/01/21 09:35:33;;;;;;;30.77;11.52;;;2.70;99.90;;;;;;5062200;28;20687;-67
2021/01/21 09:37:59;;;;;;;28.05;11.43;;;2.70;99.90;;;;;;5062094;28;20203;-67
2021/01/21 09:40:31;;;;;;;29.05;11.40;;;2.70;99.90;;;;;;5059225;28;20204;-67
2021/01/21 09:43:04;;;;;;;26.58;10.50;;;2.80;99.90;;;;;;5060556;28;20253;-68
2021/01/21 09:45:31;;;;;;;27.92;11.05;;;2.70;99.90;;;;;;5055555;28;20273;-68
2021/01/21 09:47:57;;;;;;;25.13;11.63;;;2.80;99.90;;;;;;5060319;28;20234;-69
2021/01/21 09:50:24;;;;;;;27.08;11.23;;;2.80;99.90;;;;;;5061364;28;20319;-69
2021/01/21 09:52:51;;;;;;;27.90;10.77;;;2.80;99.90;;;;;;5061874;28;20188;-69
2021/01/21 09:55:17;;;;;;;21.95;10.38;;;2.70;99.90;;;;;;5059930;28;20202;-66
2021/01/21 09:57:43;;;;;;;24.88;11.43;;;2.80;99.90;;;;;;5055389;28;20193;-69
2021/01/21 10:00:12;;;;;;;25.85;10.63;;;2.80;99.90;;;;;;5062670;28;20199;-68
2021/01/21 10:02:39;;;;;;;24.42;9.95;;;2.70;99.90;;;;;;5059468;28;20240;-68
2021/01/21 10:05:05;;;;;;;24.65;11.07;;;2.80;99.90;;;;;;5054708;28;20658;-68
2021/01/21 10:07:31;;;;;;;27.15;10.25;;;2.80;99.90;;;;;;5060792;28;20231;-67
2021/01/21 10:09:56;;;;;;;20.75;9.48;;;2.80;99.90;;;;;;5059830;28;20259;-68
2021/01/21 10:12:22;;;;;;;19.92;9.20;;;2.80;99.90;;;;;;5058135;28;20196;-67
2021/01/21 10:14:48;;;;;;;27.25;10.27;;;2.80;99.90;;;;;;5072980;28;20201;-67
2021/01/21 10:17:14;;;;;;;20.23;9.32;;;2.80;99.90;;;;;;5060433;28;20193;-69
2021/01/21 10:19:39;;;;;;;29.80;9.90;;;2.90;99.90;;;;;;5058844;28;20277;-69
2021/01/21 10:22:06;;;;;;;18.73;8.57;;;2.90;99.90;;;;;;5060998;28;20243;-67
2021/01/21 10:24:33;;;;;;;23.08;9.13;;;2.80;99.90;;;;;;5059717;28;20287;-69
2021/01/21 10:26:58;;;;;;;20.20;8.18;;;2.80;99.90;;;;;;5059795;28;20181;-67
2021/01/21 10:29:24;;;;;;;17.88;8.57;;;2.80;99.90;;;;;;5055568;28;20652;-68
2021/01/21 10:31:50;;;;;;;20.10;8.93;;;2.80;99.90;;;;;;5060223;28;20308;-72
2021/01/21 10:34:16;;;;;;;25.15;9.20;;;2.90;99.90;;;;;;5060323;28;20250;-70
2021/01/21 10:36:41;;;;;;;19.73;9.02;;;2.90;99.90;;;;;;5062912;28;20302;-69
2021/01/21 10:39:07;;;;;;;19.58;7.95;;;2.90;99.90;;;;;;5061728;28;20235;-69
2021/01/21 10:41:33;;;;;;;20.73;8.43;;;3.00;99.90;;;;;;5061423;28;20796;-69
2021/01/21 10:43:59;;;;;;;16.15;8.27;;;3.00;99.90;;;;;;5062263;28;20210;-69
2021/01/21 10:46:25;;;;;;;21.48;9.07;;;3.10;99.90;;;;;;5061169;28;20205;-68
2021/01/21 10:48:51;;;;;;;15.90;7.65;;;3.00;99.90;;;;;;5053656;28;20683;-67
2021/01/21 10:51:16;;;;;;;14.95;7.75;;;3.10;99.90;;;;;;5060284;28;20225;-67
2021/01/21 10:53:42;;;;;;;22.90;9.13;;;3.00;99.90;;;;;;5064854;28;20257;-68
2021/01/21 10:56:08;;;;;;;19.10;8.50;;;3.00;99.90;;;;;;5054834;28;20977;-68
2021/01/21 10:58:34;;;;;;;15.98;7.55;;;3.00;99.90;;;;;;5060326;28;20364;-67
2021/01/21 11:00:59;;;;;;;14.88;7.45;;;3.00;99.90;;;;;;5061877;28;20204;-68
2021/01/21 11:03:25;;;;;;;18.27;7.60;;;3.00;99.90;;;;;;5058931;28;20271;-68
2021/01/21 11:05:51;;;;;;;20.08;7.65;;;2.90;99.90;;;;;;5056129;28;20197;-69
2021/01/21 11:08:16;;;;;;;19.77;7.43;;;2.90;99.90;;;;;;5053889;28;20294;-67
2021/01/21 11:10:42;;;;;;;14.25;7.40;;;2.90;99.90;;;;;;5073355;28;20205;-68
2021/01/21 11:13:11;;;;;;;15.93;7.47;;;3.00;99.90;;;;;;5063517;28;20197;-67
2021/01/21 11:15:36;;;;;;;15.68;7.72;;;3.00;99.90;;;;;;5060306;28;20193;-68
2021/01/21 11:18:02;;;;;;;15.85;7.88;;;2.90;99.90;;;;;;5064252;28;20565;-67
2021/01/21 11:20:34;;;;;;;20.77;7.65;;;2.90;99.90;;;;;;5055673;28;20211;-69
2021/01/21 11:23:00;;;;;;;16.60;7.93;;;2.90;99.90;;;;;;5062671;28;20193;-70
2021/01/21 11:25:25;;;;;;;28.35;8.73;;;2.90;99.90;;;;;;5060827;28;20219;-67
2021/01/21 11:27:51;;;;;;;15.63;7.45;;;2.90;99.90;;;;;;5065194;28;20567;-68
2021/01/21 11:30:17;;;;;;;20.23;8.15;;;2.90;99.90;;;;;;5065883;28;20209;-68
2021/01/21 11:32:43;;;;;;;16.45;7.25;;;2.90;99.90;;;;;;5061536;28;20193;-70
2021/01/21 11:35:09;;;;;;;21.45;8.07;;;3.00;99.90;;;;;;5065506;28;20773;-67
2021/01/21 11:37:35;;;;;;;17.55;7.18;;;3.00;99.90;;;;;;5062638;28;20665;-69
2021/01/21 11:40:00;;;;;;;16.83;7.88;;;3.00;99.90;;;;;;5063161;28;20242;-68
2021/01/21 11:42:26;;;;;;;15.52;7.72;;;3.00;99.90;;;;;;5063909;28;20204;-67
2021/01/21 11:44:52;;;;;;;16.00;7.38;;;3.10;99.90;;;;;;5063804;28;20214;-68
2021/01/21 11:47:18;;;;;;;19.60;7.75;;;3.00;99.90;;;;;;5061398;28;20741;-68
2021/01/21 11:49:44;;;;;;;15.02;7.15;;;3.00;99.90;;;;;;5063987;28;20574;-68
2021/01/21 11:52:10;;;;;;;19.73;7.63;;;3.00;99.90;;;;;;5058545;28;20293;-70
2021/01/21 11:54:37;;;;;;;17.15;6.60;;;2.90;99.90;;;;;;5065127;28;20228;-69
2021/01/21 11:57:02;;;;;;;18.50;7.50;;;2.90;99.90;;;;;;5061321;28;20184;-67
2021/01/21 11:59:29;;;;;;;17.80;7.28;;;2.90;99.90;;;;;;5066340;28;20192;-68
2021/01/21 12:01:54;;;;;;;16.52;6.85;;;2.90;99.90;;;;;;5062449;28;20243;-70
2021/01/21 12:04:20;;;;;;;15.82;7.05;;;2.90;99.90;;;;;;5062253;28;20710;-69
2021/01/21 12:06:47;;;;;;;17.08;7.40;;;2.90;99.90;;;;;;5065895;28;20765;-69
2021/01/21 12:09:13;;;;;;;16.00;7.70;;;2.90;99.90;;;;;;5063315;28;20663;-68
2021/01/21 12:11:39;;;;;;;15.02;7.03;;;2.90;99.90;;;;;;5061674;28;21037;-67
2021/01/21 12:14:04;;;;;;;14.27;7.47;;;2.90;99.90;;;;;;5060908;28;20242;-70
2021/01/21 12:16:30;;;;;;;17.90;7.50;;;2.90;99.90;;;;;;5059882;28;20198;-69
2021/01/21 12:18:56;;;;;;;14.45;7.13;;;2.80;99.90;;;;;;5065613;28;20196;-67
2021/01/21 12:21:22;;;;;;;16.38;7.30;;;2.90;99.90;;;;;;5062819;28;20915;-69
2021/01/21 12:23:48;;;;;;;22.88;6.90;;;2.90;99.90;;;;;;5057787;28;20197;-67
2021/01/21 12:26:14;;;;;;;13.07;6.68;;;2.90;99.90;;;;;;5062070;28;20971;-68
2021/01/21 12:28:39;;;;;;;12.90;6.55;;;2.90;99.90;;;;;;5060694;28;20233;-68
2021/01/21 12:31:06;;;;;;;16.75;6.82;;;2.90;99.90;;;;;;5061322;28;20232;-67
2021/01/21 12:33:32;;;;;;;20.73;7.45;;;2.90;99.90;;;;;;5063556;28;20236;-67
2021/01/21 12:35:59;;;;;;;19.70;6.35;;;2.90;99.90;;;;;;5063527;28;20552;-68
2021/01/21 12:38:25;;;;;;;20.17;7.30;;;2.90;99.90;;;;;;5057889;28;20201;-68
2021/01/21 12:40:52;;;;;;;13.02;6.35;;;3.00;99.90;;;;;;5056558;28;20263;-68
2021/01/21 12:43:18;;;;;;;18.60;6.88;;;3.00;99.90;;;;;;5074921;28;20295;-69
2021/01/21 12:45:45;;;;;;;14.85;6.50;;;2.90;99.90;;;;;;5063410;28;20200;-69
2021/01/21 12:48:12;;;;;;;11.30;5.82;;;3.00;99.90;;;;;;5059875;28;20788;-68
2021/01/21 12:50:38;;;;;;;16.30;5.55;;;3.00;99.90;;;;;;5059870;28;20204;-69